createdAt,value
2024-05-09T00:00:35.855Z,19.48
2024-05-09T00:03:10.627Z,19.48
2024-05-09T00:05:40.189Z,19.47
2024-05-09T00:08:08.812Z,19.47
2024-05-09T00:10:38.036Z,19.45
2024-05-09T00:13:07.048Z,19.44
2024-05-09T00:15:34.783Z,19.44
2024-05-09T00:18:03.271Z,19.43
2024-05-09T00:20:37.559Z,19.43
2024-05-09T00:23:08.052Z,19.42
2024-05-09T00:25:35.488Z,19.42
2024-05-09T00:28:02.456Z,19.41
2024-05-09T00:30:34.352Z,19.40
2024-05-09T00:33:04.921Z,19.39
2024-05-09T00:35:32.593Z,19.38
2024-05-09T00:37:59.398Z,19.38
2024-05-09T00:40:35.620Z,19.37
2024-05-09T00:43:08.030Z,19.36
2024-05-09T00:45:35.682Z,19.36
2024-05-09T00:48:06.660Z,19.36
2024-05-09T00:50:37.146Z,19.33
2024-05-09T00:53:08.444Z,19.33
2024-05-09T00:55:37.491Z,19.32
2024-05-09T00:58:07.548Z,19.33
2024-05-09T01:00:39.175Z,19.32
2024-05-09T01:03:10.040Z,19.31
2024-05-09T01:05:39.512Z,19.30
2024-05-09T01:08:07.167Z,19.29
2024-05-09T01:10:35.537Z,19.28
2024-05-09T01:13:03.803Z,19.28
2024-05-09T01:15:30.671Z,19.28
2024-05-09T01:17:58.974Z,19.25
2024-05-09T01:20:37.142Z,19.25
2024-05-09T01:23:10.011Z,19.25
2024-05-09T01:25:37.091Z,19.25
2024-05-09T01:28:04.022Z,19.24
2024-05-09T01:30:35.293Z,19.24
2024-05-09T01:33:09.075Z,19.22
2024-05-09T01:35:37.809Z,19.21
2024-05-09T01:38:04.947Z,19.21
2024-05-09T01:40:37.564Z,19.19
2024-05-09T01:43:10.729Z,19.18
2024-05-09T01:45:39.268Z,19.19
2024-05-09T01:48:06.943Z,19.17
2024-05-09T01:50:38.893Z,19.18
2024-05-09T01:53:13.511Z,19.16
2024-05-09T01:55:40.825Z,19.16
2024-05-09T01:58:08.609Z,19.16
2024-05-09T02:00:40.120Z,19.14
2024-05-09T02:03:13.334Z,19.15
2024-05-09T02:05:43.297Z,19.14
2024-05-09T02:08:19.299Z,19.12
2024-05-09T02:10:47.780Z,19.13
2024-05-09T02:13:15.330Z,19.12
2024-05-09T02:15:42.130Z,19.11
2024-05-09T02:18:09.982Z,19.12
2024-05-09T02:20:39.139Z,19.10
2024-05-09T02:23:06.628Z,19.10
2024-05-09T02:25:33.880Z,19.10
2024-05-09T02:28:00.770Z,19.09
2024-05-09T02:30:37.869Z,19.08
2024-05-09T02:33:08.198Z,19.08
2024-05-09T02:35:35.977Z,19.07
2024-05-09T02:38:02.813Z,19.07
2024-05-09T02:40:36.538Z,19.06
2024-05-09T02:43:06.448Z,19.06
2024-05-09T02:45:33.462Z,19.07
2024-05-09T02:48:01.530Z,19.06
2024-05-09T02:50:34.703Z,19.04
2024-05-09T02:53:06.060Z,19.05
2024-05-09T02:55:33.098Z,19.04
2024-05-09T02:57:59.974Z,19.02
2024-05-09T03:00:34.921Z,19.03
2024-05-09T03:03:12.061Z,19.02
2024-05-09T03:05:41.800Z,19.01
2024-05-09T03:08:08.869Z,18.99
2024-05-09T03:10:37.908Z,18.99
2024-05-09T03:13:11.663Z,18.99
2024-05-09T03:15:38.588Z,18.99
2024-05-09T03:18:06.072Z,18.97
2024-05-09T03:20:35.356Z,18.98
2024-05-09T03:23:04.534Z,18.97
2024-05-09T03:25:31.525Z,18.95
2024-05-09T03:27:58.311Z,18.94
2024-05-09T03:30:36.753Z,18.95
2024-05-09T03:33:17.715Z,18.93
2024-05-09T03:35:46.411Z,18.92
2024-05-09T03:38:13.360Z,18.93
2024-05-09T03:40:47.521Z,18.92
2024-05-09T03:43:14.915Z,18.90
2024-05-09T03:45:45.747Z,18.90
2024-05-09T03:48:13.213Z,18.89
2024-05-09T03:50:40.291Z,18.88
2024-05-09T03:53:10.569Z,18.86
2024-05-09T03:55:37.330Z,18.87
2024-05-09T03:58:04.086Z,18.87
2024-05-09T04:00:37.372Z,18.85
2024-05-09T04:03:09.310Z,18.86
2024-05-09T04:05:39.790Z,18.84
2024-05-09T04:08:07.582Z,18.83
2024-05-09T04:10:35.217Z,18.83
2024-05-09T04:13:03.499Z,18.82
2024-05-09T04:15:30.687Z,18.82
2024-05-09T04:17:57.633Z,18.82
2024-05-09T04:20:33.915Z,18.81
2024-05-09T04:23:06.246Z,18.79
2024-05-09T04:25:33.218Z,18.81
2024-05-09T04:27:59.892Z,18.79
2024-05-09T04:30:34.966Z,18.79
2024-05-09T04:33:07.701Z,18.76
2024-05-09T04:35:36.272Z,18.77
2024-05-09T04:38:03.463Z,18.78
2024-05-09T04:40:34.254Z,18.76
2024-05-09T04:43:06.983Z,18.76
2024-05-09T04:45:34.110Z,18.77
2024-05-09T04:48:01.541Z,18.74
2024-05-09T04:50:36.179Z,18.76
2024-05-09T04:53:06.749Z,18.74
2024-05-09T04:55:34.152Z,18.75
2024-05-09T04:58:01.734Z,18.74
2024-05-09T05:00:35.725Z,18.74
2024-05-09T05:03:10.830Z,18.74
2024-05-09T05:05:43.424Z,18.74
2024-05-09T05:08:15.203Z,18.73
2024-05-09T05:10:42.820Z,18.72
2024-05-09T05:13:20.056Z,18.72
2024-05-09T05:15:51.572Z,18.73
2024-05-09T05:18:18.780Z,18.73
2024-05-09T05:20:45.879Z,18.71
2024-05-09T05:23:15.107Z,18.72
2024-05-09T05:25:42.271Z,18.72
2024-05-09T05:28:09.365Z,18.71
2024-05-09T05:30:37.783Z,18.71
2024-05-09T05:33:05.896Z,18.73
2024-05-09T05:35:33.135Z,18.72
2024-05-09T05:38:00.145Z,18.70
2024-05-09T05:40:33.364Z,18.72
2024-05-09T05:43:08.673Z,18.72
2024-05-09T05:45:35.722Z,18.72
2024-05-09T05:48:06.539Z,18.71
2024-05-09T05:50:36.744Z,18.70
2024-05-09T05:53:06.626Z,18.72
2024-05-09T05:55:33.503Z,18.72
2024-05-09T05:58:01.651Z,18.70
2024-05-09T06:00:34.817Z,18.71
2024-05-09T06:03:05.531Z,18.72
2024-05-09T06:05:32.737Z,18.73
2024-05-09T06:07:59.655Z,18.72
2024-05-09T06:10:34.890Z,18.72
2024-05-09T06:13:05.662Z,18.73
2024-05-09T06:15:32.259Z,18.71
2024-05-09T06:17:59.327Z,18.72
2024-05-09T06:20:34.687Z,18.73
2024-05-09T06:23:04.687Z,18.71
2024-05-09T06:25:32.031Z,18.73
2024-05-09T06:28:00.352Z,18.73
2024-05-09T06:30:36.521Z,18.72
2024-05-09T06:33:07.862Z,18.72
2024-05-09T06:35:35.198Z,18.74
2024-05-09T06:38:02.170Z,18.74
2024-05-09T06:40:36.869Z,18.72
2024-05-09T06:43:13.939Z,18.73
2024-05-09T06:45:41.084Z,18.74
2024-05-09T06:48:09.451Z,18.77
2024-05-09T06:50:38.493Z,18.77
2024-05-09T06:53:06.639Z,18.80
2024-05-09T06:55:33.333Z,18.81
2024-05-09T06:57:59.892Z,18.84
2024-05-09T07:00:34.811Z,18.85
2024-05-09T07:03:15.870Z,18.87
2024-05-09T07:05:45.076Z,18.88
2024-05-09T07:08:12.092Z,18.88
2024-05-09T07:10:38.843Z,18.90
2024-05-09T07:13:13.210Z,18.92
2024-05-09T07:15:41.057Z,18.92
2024-05-09T07:18:13.069Z,18.94
2024-05-09T07:20:40.449Z,18.95
2024-05-09T07:23:11.154Z,18.96
2024-05-09T07:25:38.866Z,18.97
2024-05-09T07:28:09.574Z,18.98
2024-05-09T07:30:36.160Z,19.01
2024-05-09T07:33:04.192Z,19.02
2024-05-09T07:35:31.324Z,19.01
2024-05-09T07:37:58.453Z,19.02
2024-05-09T07:40:32.965Z,19.03
2024-05-09T07:43:13.221Z,19.03
2024-05-09T07:45:49.580Z,19.04
2024-05-09T07:53:38.554Z,19.06
2024-05-09T07:56:07.367Z,19.07
2024-05-09T07:58:34.255Z,19.07
2024-05-09T08:01:02.670Z,19.08
2024-05-09T08:03:29.628Z,19.09
2024-05-09T08:05:56.464Z,19.10
2024-05-09T08:08:23.311Z,19.10
2024-05-09T08:10:50.814Z,19.10
2024-05-09T08:13:17.499Z,19.11
2024-05-09T08:15:44.172Z,19.12
2024-05-09T08:18:11.292Z,19.13
2024-05-09T08:20:38.965Z,19.14
2024-05-09T08:23:05.973Z,19.14
2024-05-09T08:25:33.060Z,19.15
2024-05-09T08:27:59.743Z,19.15
2024-05-09T08:30:33.411Z,19.15
2024-05-09T08:33:04.717Z,19.16
2024-05-09T08:35:32.091Z,19.16
2024-05-09T08:37:59.040Z,19.17
2024-05-09T08:40:33.340Z,19.18
2024-05-09T08:43:05.259Z,19.19
2024-05-09T08:45:34.726Z,19.21
2024-05-09T08:48:07.674Z,19.20
2024-05-09T08:50:39.147Z,19.22
2024-05-09T08:53:07.507Z,19.22
2024-05-09T08:55:35.491Z,19.24
2024-05-09T08:58:04.230Z,19.24
2024-05-09T09:00:36.876Z,19.25
2024-05-09T09:03:09.286Z,19.26
2024-05-09T09:05:39.090Z,19.27
2024-05-09T09:08:08.123Z,19.28
2024-05-09T09:10:35.950Z,19.29
2024-05-09T09:13:04.995Z,19.30
2024-05-09T09:15:32.676Z,19.31
2024-05-09T09:18:00.569Z,19.30
2024-05-09T09:20:35.340Z,19.34
2024-05-09T09:23:03.912Z,19.35
2024-05-09T09:25:30.702Z,19.34
2024-05-09T09:27:58.422Z,19.36
2024-05-09T09:30:35.168Z,19.37
2024-05-09T09:33:13.591Z,19.39
2024-05-09T09:35:40.809Z,19.39
2024-05-09T09:38:09.918Z,19.40
2024-05-09T09:40:42.515Z,19.43
2024-05-09T09:43:18.583Z,19.43
2024-05-09T09:45:49.265Z,19.43
2024-05-09T09:48:16.850Z,19.43
2024-05-09T09:50:45.358Z,19.45
2024-05-09T09:53:12.809Z,19.46
2024-05-09T09:55:40.259Z,19.47
2024-05-09T09:58:09.671Z,19.48
2024-05-09T10:00:38.863Z,19.49
2024-05-09T10:03:05.701Z,19.50
2024-05-09T10:05:33.840Z,19.52
2024-05-09T10:08:06.507Z,19.54
2024-05-09T10:10:35.190Z,19.56
2024-05-09T10:13:06.063Z,19.56
2024-05-09T10:15:53.066Z,19.56
2024-05-09T10:18:27.041Z,19.56
2024-05-09T10:20:56.098Z,19.56
2024-05-09T10:23:32.969Z,19.57
2024-05-09T10:26:05.001Z,19.57
2024-05-09T10:28:33.521Z,19.58
2024-05-09T10:31:08.858Z,19.58
2024-05-09T10:33:40.485Z,19.59
2024-05-09T10:36:20.938Z,19.57
2024-05-09T10:38:49.297Z,19.59
2024-05-09T10:41:16.972Z,19.60
2024-05-09T10:43:43.636Z,19.62
2024-05-09T10:46:11.494Z,19.61
2024-05-09T10:48:41.670Z,19.64
2024-05-09T10:51:08.952Z,19.66
2024-05-09T10:53:46.212Z,19.69
2024-05-09T10:56:16.615Z,19.70
2024-05-09T10:58:43.522Z,19.72
2024-05-09T11:01:11.042Z,19.72
2024-05-09T11:03:39.365Z,19.73
2024-05-09T11:06:07.067Z,19.75
2024-05-09T11:08:35.072Z,19.76
2024-05-09T11:11:06.671Z,19.77
2024-05-09T11:13:35.253Z,19.77
2024-05-09T11:16:03.302Z,19.80
2024-05-09T11:18:35.244Z,19.80
2024-05-09T11:21:12.862Z,19.82
2024-05-09T11:23:40.321Z,19.81
2024-05-09T11:26:07.463Z,19.82
2024-05-09T11:28:34.138Z,19.83
2024-05-09T11:31:10.118Z,19.83
2024-05-09T11:33:42.154Z,19.84
2024-05-09T11:36:09.683Z,19.84
2024-05-09T11:38:36.674Z,19.85
2024-05-09T11:41:04.718Z,19.86
2024-05-09T11:43:31.453Z,19.87
2024-05-09T11:45:58.639Z,19.88
2024-05-09T11:48:26.184Z,19.87
2024-05-09T11:50:54.525Z,19.88
2024-05-09T11:53:21.165Z,19.88
2024-05-09T11:55:47.770Z,19.89
2024-05-09T11:58:17.877Z,19.90
2024-05-09T12:00:45.566Z,19.91
2024-05-09T12:03:12.621Z,19.90
2024-05-09T12:05:39.605Z,19.91
2024-05-09T12:08:07.637Z,19.91
2024-05-09T12:10:36.122Z,19.92
2024-05-09T12:13:05.510Z,19.93
2024-05-09T12:15:36.602Z,19.92
2024-05-09T12:18:04.718Z,19.94
2024-05-09T12:20:37.515Z,19.96
2024-05-09T12:23:07.089Z,19.96
2024-05-09T12:25:34.781Z,19.97
2024-05-09T12:28:01.577Z,19.97
2024-05-09T12:30:35.858Z,19.98
2024-05-09T12:33:07.398Z,20.00
2024-05-09T12:35:34.144Z,20.01
2024-05-09T12:38:00.807Z,20.02
2024-05-09T12:40:35.458Z,20.02
2024-05-09T12:43:06.083Z,20.01
2024-05-09T12:45:32.900Z,20.04
2024-05-09T12:47:59.734Z,20.05
2024-05-09T12:50:32.366Z,20.06
2024-05-09T12:53:01.676Z,20.07
2024-05-09T12:55:33.470Z,20.06
2024-05-09T12:58:06.984Z,20.10
2024-05-09T13:00:34.567Z,20.10
2024-05-09T13:03:01.683Z,20.11
2024-05-09T13:05:29.512Z,20.13
2024-05-09T13:07:57.156Z,20.14
2024-05-09T13:10:31.647Z,20.15
2024-05-09T13:13:00.785Z,20.17
2024-05-09T13:15:28.299Z,20.18
2024-05-09T13:17:57.927Z,20.19
2024-05-09T13:20:32.371Z,20.21
2024-05-09T13:23:02.530Z,20.20
2024-05-09T13:25:29.482Z,20.19
2024-05-09T13:27:56.924Z,20.21
2024-05-09T13:30:29.844Z,20.19
2024-05-09T13:33:06.304Z,20.20
2024-05-09T13:35:35.342Z,20.20
2024-05-09T13:38:02.803Z,20.19
2024-05-09T13:40:34.173Z,20.20
2024-05-09T13:43:05.960Z,20.19
2024-05-09T13:45:33.653Z,20.20
2024-05-09T13:48:02.015Z,20.20
2024-05-09T13:50:34.575Z,20.19
2024-05-09T13:53:05.974Z,20.20
2024-05-09T13:55:33.743Z,20.21
2024-05-09T13:58:01.000Z,20.20
2024-05-09T14:00:41.331Z,20.18
2024-05-09T14:03:13.970Z,20.20
2024-05-09T14:05:41.256Z,20.19
2024-05-09T14:08:08.715Z,20.20
2024-05-09T14:10:35.709Z,20.21
2024-05-09T14:13:02.468Z,20.18
2024-05-09T14:15:29.263Z,20.20
2024-05-09T14:17:56.081Z,20.21
2024-05-09T14:20:30.722Z,20.20
2024-05-09T14:22:59.935Z,20.19
2024-05-09T14:25:31.878Z,20.20
2024-05-09T14:27:58.730Z,20.20
2024-05-09T14:30:34.141Z,20.21
2024-05-09T14:33:04.646Z,20.22
2024-05-09T14:35:31.547Z,20.21
2024-05-09T14:37:58.679Z,20.22
2024-05-09T14:40:36.849Z,20.23
2024-05-09T14:43:10.306Z,20.23
2024-05-09T14:45:37.139Z,20.24
2024-05-09T14:48:04.405Z,20.24
2024-05-09T14:50:36.651Z,20.26
2024-05-09T14:53:09.743Z,20.26
2024-05-09T14:55:38.766Z,20.27
2024-05-09T14:58:06.904Z,20.27
2024-05-09T15:00:38.373Z,20.28
2024-05-09T15:03:06.744Z,20.31
2024-05-09T15:05:33.534Z,20.31
2024-05-09T15:08:00.410Z,20.31
2024-05-09T15:10:34.164Z,20.33
2024-05-09T15:13:04.079Z,20.33
2024-05-09T15:15:31.074Z,20.36
2024-05-09T15:17:57.972Z,20.34
2024-05-09T15:20:32.973Z,20.37
2024-05-09T15:23:02.885Z,20.37
2024-05-09T15:25:29.794Z,20.37
2024-05-09T15:27:56.775Z,20.39
2024-05-09T15:30:30.721Z,20.41
2024-05-09T15:35:26.880Z,20.40
2024-05-09T15:37:53.706Z,20.40
2024-05-09T15:40:30.518Z,20.38
2024-05-09T15:43:04.633Z,20.41
2024-05-09T15:45:31.885Z,20.41
2024-05-09T15:47:59.102Z,20.42
2024-05-09T15:50:35.025Z,20.42
2024-05-09T15:53:05.855Z,20.41
2024-05-09T15:55:34.172Z,20.40
2024-05-09T15:58:03.061Z,20.40
2024-05-09T16:00:37.528Z,20.41
2024-05-09T16:03:08.274Z,20.41
2024-05-09T16:05:35.357Z,20.41
2024-05-09T16:08:02.509Z,20.41
2024-05-09T16:10:32.871Z,20.41
2024-05-09T16:13:01.734Z,20.40
2024-05-09T16:15:28.755Z,20.41
2024-05-09T16:17:55.610Z,20.40
2024-05-09T16:20:33.951Z,20.41
2024-05-09T16:23:06.508Z,20.39
2024-05-09T16:25:33.240Z,20.41
2024-05-09T16:28:00.220Z,20.40
2024-05-09T16:30:31.883Z,20.40
2024-05-09T16:33:02.465Z,20.41
2024-05-09T16:35:29.401Z,20.39
2024-05-09T16:37:56.158Z,20.40
2024-05-09T16:40:30.272Z,20.40
2024-05-09T16:43:04.843Z,20.38
2024-05-09T16:45:32.108Z,20.40
2024-05-09T16:48:00.170Z,20.39
2024-05-09T16:50:32.407Z,20.39
2024-05-09T16:53:01.196Z,20.41
2024-05-09T16:55:28.081Z,20.39
2024-05-09T16:57:56.000Z,20.40
2024-05-09T17:00:34.838Z,20.39
2024-05-09T17:03:07.762Z,20.40
2024-05-09T17:05:35.395Z,20.38
2024-05-09T17:08:02.728Z,20.40
2024-05-09T17:10:33.290Z,20.40
2024-05-09T17:13:06.789Z,20.40
2024-05-09T17:15:34.990Z,20.41
2024-05-09T17:18:02.559Z,20.40
2024-05-09T17:20:34.004Z,20.38
2024-05-09T17:23:04.427Z,20.38
2024-05-09T17:25:31.598Z,20.40
2024-05-09T17:28:05.254Z,20.37
2024-05-09T17:30:36.322Z,20.38
2024-05-09T17:33:06.614Z,20.37
2024-05-09T17:35:33.579Z,20.36
2024-05-09T17:38:01.609Z,20.36
2024-05-09T17:40:33.577Z,20.37
2024-05-09T17:43:03.763Z,20.36
2024-05-09T17:45:30.995Z,20.36
2024-05-09T17:47:58.357Z,20.36
2024-05-09T17:50:31.603Z,20.35
2024-05-09T17:53:02.449Z,20.36
2024-05-09T17:55:29.523Z,20.36
2024-05-09T17:57:56.276Z,20.36
2024-05-09T18:00:33.176Z,20.37
2024-05-09T18:03:05.788Z,20.37
2024-05-09T18:05:32.816Z,20.36
2024-05-09T18:08:00.030Z,20.36
2024-05-09T18:10:33.735Z,20.35
2024-05-09T18:13:05.803Z,20.35
2024-05-09T18:15:33.212Z,20.33
2024-05-09T18:18:00.234Z,20.33
2024-05-09T18:20:37.044Z,20.33
2024-05-09T18:23:09.317Z,20.32
2024-05-09T18:25:35.961Z,20.31
2024-05-09T18:28:03.537Z,20.29
2024-05-09T18:30:34.933Z,20.30
2024-05-09T18:33:05.115Z,20.30
2024-05-09T18:35:33.106Z,20.30
2024-05-09T18:37:59.966Z,20.29
2024-05-09T18:40:33.370Z,20.29
2024-05-09T18:43:04.451Z,20.27
2024-05-09T18:45:32.086Z,20.28
2024-05-09T18:47:58.998Z,20.28
2024-05-09T18:50:32.624Z,20.27
2024-05-09T18:53:05.973Z,20.27
2024-05-09T18:55:32.774Z,20.26
2024-05-09T18:57:59.545Z,20.26
2024-05-09T19:00:33.623Z,20.26
2024-05-09T19:03:05.733Z,20.26
2024-05-09T19:05:35.303Z,20.24
2024-05-09T19:08:02.855Z,20.23
2024-05-09T19:10:34.239Z,20.24
2024-05-09T19:13:05.320Z,20.24
2024-05-09T19:15:35.465Z,20.24
2024-05-09T19:18:02.430Z,20.23
2024-05-09T19:20:34.133Z,20.23
2024-05-09T19:23:02.456Z,20.22
2024-05-09T19:25:29.083Z,20.22
2024-05-09T19:27:55.753Z,20.22
2024-05-09T19:30:30.201Z,20.21
2024-05-09T19:33:04.843Z,20.20
2024-05-09T19:35:32.267Z,20.19
2024-05-09T19:37:59.045Z,20.21
2024-05-09T19:40:31.292Z,20.19
2024-05-09T19:43:00.684Z,20.19
2024-05-09T19:45:27.532Z,20.18
2024-05-09T19:47:54.448Z,20.18
2024-05-09T19:50:30.191Z,20.18
2024-05-09T19:53:03.201Z,20.17
2024-05-09T19:55:29.955Z,20.16
2024-05-09T19:57:56.971Z,20.17
2024-05-09T20:00:32.336Z,20.16
2024-05-09T20:03:02.674Z,20.16
2024-05-09T20:05:31.204Z,20.15
2024-05-09T20:07:58.344Z,20.15
2024-05-09T20:10:31.124Z,20.15
2024-05-09T20:13:00.107Z,20.13
2024-05-09T20:15:27.033Z,20.13
2024-05-09T20:17:54.075Z,20.12
2024-05-09T20:20:31.940Z,20.13
2024-05-09T20:23:03.547Z,20.12
2024-05-09T20:25:30.180Z,20.11
2024-05-09T20:27:56.954Z,20.11
2024-05-09T20:30:31.205Z,20.09
2024-05-09T20:33:00.076Z,20.09
2024-05-09T20:35:27.130Z,20.10
2024-05-09T20:37:53.815Z,20.07
2024-05-09T20:40:28.394Z,20.08
2024-05-09T20:42:59.284Z,20.08
2024-05-09T20:45:26.235Z,20.07
2024-05-09T20:47:53.144Z,20.08
2024-05-09T20:50:28.438Z,20.08
2024-05-09T20:53:03.083Z,20.07
2024-05-09T20:55:30.161Z,20.07
2024-05-09T20:57:57.255Z,20.07
2024-05-09T21:00:33.692Z,20.07
2024-05-09T21:03:06.322Z,20.07
2024-05-09T21:05:33.693Z,20.06
2024-05-09T21:08:01.332Z,20.07
2024-05-09T21:10:32.644Z,20.07
2024-05-09T21:13:00.853Z,20.06
2024-05-09T21:15:27.614Z,20.06
2024-05-09T21:17:54.425Z,20.06
2024-05-09T21:20:28.119Z,20.06
2024-05-09T21:22:57.757Z,20.05
2024-05-09T21:25:24.498Z,20.05
2024-05-09T21:27:51.284Z,20.05
2024-05-09T21:30:27.354Z,20.04
2024-05-09T21:32:59.969Z,20.04
2024-05-09T21:35:26.729Z,20.03
2024-05-09T21:37:53.387Z,20.03
2024-05-09T21:40:27.304Z,20.02
2024-05-09T21:43:01.094Z,20.02
2024-05-09T21:45:27.902Z,20.02
2024-05-09T21:47:54.873Z,20.01
2024-05-09T21:50:28.106Z,20.01
2024-05-09T21:52:59.237Z,20.00
2024-05-09T21:55:25.978Z,20.00
2024-05-09T21:57:52.727Z,19.98
2024-05-09T22:00:28.844Z,19.99
2024-05-09T22:03:02.267Z,19.97
2024-05-09T22:05:29.212Z,19.96
2024-05-09T22:07:56.531Z,19.95
2024-05-09T22:10:27.171Z,19.97
2024-05-09T22:13:00.038Z,19.95
2024-05-09T22:15:27.137Z,19.95
2024-05-09T22:17:55.072Z,19.94
2024-05-09T22:20:28.884Z,19.94
2024-05-09T22:23:02.674Z,19.93
2024-05-09T22:25:30.997Z,19.92
2024-05-09T22:27:58.877Z,19.91
2024-05-09T22:30:34.172Z,19.90
2024-05-09T22:33:05.739Z,19.90
2024-05-09T22:35:32.762Z,19.90
2024-05-09T22:37:59.427Z,19.90
2024-05-09T22:40:38.032Z,19.89
2024-05-09T22:43:12.873Z,19.89
2024-05-09T22:45:39.824Z,19.90
2024-05-09T22:48:08.070Z,19.90
2024-05-09T22:50:35.003Z,19.88
2024-05-09T22:53:01.788Z,19.87
2024-05-09T22:55:28.684Z,19.88
2024-05-09T22:57:55.782Z,19.88
2024-05-09T23:00:30.892Z,19.86
2024-05-09T23:03:00.251Z,19.87
2024-05-09T23:05:27.317Z,19.86
2024-05-09T23:07:54.063Z,19.86
2024-05-09T23:10:27.950Z,19.85
2024-05-09T23:13:01.202Z,19.85
2024-05-09T23:15:27.944Z,19.84
2024-05-09T23:17:55.253Z,19.84
2024-05-09T23:20:32.829Z,19.84
2024-05-09T23:23:04.374Z,19.82
2024-05-09T23:25:30.969Z,19.82
2024-05-09T23:27:57.617Z,19.81
2024-05-09T23:30:33.583Z,19.82
2024-05-09T23:33:05.015Z,19.79
2024-05-09T23:35:31.799Z,19.80
2024-05-09T23:37:58.414Z,19.79
2024-05-09T23:40:36.382Z,19.79
2024-05-09T23:43:06.583Z,19.79
2024-05-09T23:45:33.408Z,19.78
2024-05-09T23:48:00.273Z,19.76
2024-05-09T23:50:34.235Z,19.76
2024-05-09T23:53:04.184Z,19.75
2024-05-09T23:55:31.551Z,19.76
2024-05-09T23:57:58.554Z,19.74
